Time;durP1;ratioP1;P1;durP2;ratioP2;P2;SDS_P1;SDS_P2;PMS_P1;PMS_P2;Temp;Humidity;BMP_temperature;BMP_pressure;BME280_temperature;BME280_humidity;BME280_pressure;Samples;Min_cycle;Max_cycle;Signal;HPM_P1;HPM_P2
2023/03/29 00:00:45;;;;;;;12.53;3.60;;;;;;;-145.18;100.00;60484.78;4994225;28;20099;-67
2023/03/29 00:03:12;;;;;;;7.50;3.60;;;;;;;-145.18;100.00;60484.78;4994078;28;20058;-67
2023/03/29 00:05:40;;;;;;;7.87;3.30;;;;;;;-145.18;100.00;60484.78;4993768;28;20073;-67
2023/03/29 00:08:06;;;;;;;9.00;3.37;;;;;;;-145.18;100.00;60484.78;4994178;28;20035;-67
2023/03/29 00:10:33;;;;;;;11.23;3.77;;;;;;;-145.18;100.00;60484.78;4994210;28;20384;-67
2023/03/29 00:12:58;;;;;;;10.63;4.07;;;;;;;-145.18;100.00;60484.78;4994288;28;20487;-67
2023/03/29 00:15:24;;;;;;;11.07;4.50;;;;;;;-145.18;100.00;60484.78;4994108;28;20117;-67
2023/03/29 00:17:50;;;;;;;12.53;4.50;;;;;;;-145.18;100.00;60484.78;4993934;28;20089;-67
2023/03/29 00:20:16;;;;;;;8.50;4.13;;;;;;;-145.18;100.00;60484.78;4993165;28;20151;-66
2023/03/29 00:22:43;;;;;;;13.23;5.17;;;;;;;-145.18;100.00;60484.78;4993989;28;20041;-67
2023/03/29 00:25:10;;;;;;;11.00;4.57;;;;;;;-145.18;100.00;60484.78;4993902;28;20494;-67
2023/03/29 00:27:36;;;;;;;9.60;4.77;;;;;;;-145.18;100.00;60484.78;4993900;28;20026;-67
2023/03/29 00:30:04;;;;;;;14.37;4.80;;;;;;;-145.18;100.00;60484.78;4993768;28;20494;-66
2023/03/29 00:32:30;;;;;;;9.37;5.00;;;;;;;-145.18;100.00;60484.78;4993766;28;20391;-67
2023/03/29 00:34:56;;;;;;;10.53;5.13;;;;;;;-145.18;100.00;60484.78;4994070;28;20430;-67
2023/03/29 00:37:25;;;;;;;12.30;5.73;;;;;;;-145.18;100.00;60484.78;4993728;28;20065;-67
2023/03/29 00:39:51;;;;;;;12.10;5.20;;;;;;;-145.18;100.00;60484.78;4993779;28;20058;-68
2023/03/29 00:42:17;;;;;;;10.87;5.40;;;;;;;-145.18;100.00;60484.78;4993861;28;20061;-67
2023/03/29 00:45:17;;;;;;;13.63;6.10;;;;;;;-145.18;100.00;60484.78;4993875;28;20034;-67
2023/03/29 00:48:26;;;;;;;13.13;5.90;;;;;;;-145.18;100.00;60484.78;4983202;28;20038;-67
2023/03/29 00:51:02;;;;;;;11.67;6.77;;;;;;;-145.18;100.00;60484.78;4995894;28;20057;-66
2023/03/29 00:53:41;;;;;;;13.47;6.50;;;;;;;-145.18;100.00;60484.78;4993676;28;20101;-67
2023/03/29 00:56:13;;;;;;;13.73;7.30;;;;;;;-145.18;100.00;60484.78;4994034;28;20030;-67
2023/03/29 00:58:46;;;;;;;12.45;7.10;;;;;;;-145.18;100.00;60484.78;4993639;28;20034;-67
2023/03/29 01:04:07;;;;;;;15.13;7.73;;;;;;;-145.18;100.00;60484.78;5039448;22;20420;-62
2023/03/29 01:06:36;;;;;;;16.30;7.93;;;;;;;-145.18;100.00;60484.78;5020970;28;20041;-62
2023/03/29 01:09:06;;;;;;;16.57;8.40;;;;;;;-145.18;100.00;60484.78;5013309;28;20474;-62
2023/03/29 01:11:52;;;;;;;17.80;8.40;;;;;;;-145.18;100.00;60484.78;5029469;28;20060;-62
2023/03/29 01:14:29;;;;;;;16.30;8.00;;;;;;;-145.18;100.00;60484.78;5032342;28;20318;-62
2023/03/29 01:16:54;;;;;;;18.40;8.70;;;;;;;-145.18;100.00;60484.78;5033267;28;20477;-62
2023/03/29 01:19:25;;;;;;;13.33;8.30;;;;;;;-145.18;100.00;60484.78;5035763;28;20083;-62
2023/03/29 01:22:00;;;;;;;16.30;8.10;;;;;;;-145.18;100.00;60484.78;5036649;28;20033;-62
2023/03/29 01:24:43;;;;;;;16.93;9.10;;;;;;;-145.18;100.00;60484.78;5036497;28;20026;-62
2023/03/29 01:27:21;;;;;;;14.23;8.43;;;;;;;-145.18;100.00;60484.78;5036690;28;20044;-62
2023/03/29 01:30:00;;;;;;;17.10;8.27;;;;;;;-145.18;100.00;60484.78;5036003;28;20044;-61
2023/03/29 01:32:40;;;;;;;15.00;8.37;;;;;;;-145.18;100.00;60484.78;5036824;28;20021;-62
2023/03/29 01:35:23;;;;;;;16.30;9.33;;;;;;;-145.18;100.00;60484.78;5036376;28;20095;-61
2023/03/29 01:38:06;;;;;;;17.60;9.93;;;;;;;-145.18;100.00;60484.78;5036198;28;20033;-61
2023/03/29 01:40:32;;;;;;;16.10;9.80;;;;;;;-145.18;100.00;60484.78;5016694;28;20508;-61
2023/03/29 01:43:39;;;;;;;16.63;9.50;;;;;;;-145.18;100.00;60484.78;5016539;28;20034;-61
2023/03/29 01:46:19;;;;;;;17.70;10.70;;;;;;;-145.18;100.00;60484.78;4994755;28;20030;-61
2023/03/29 01:48:56;;;;;;;17.37;10.17;;;;;;;-145.18;100.00;60484.78;4994607;28;20050;-61
2023/03/29 01:51:34;;;;;;;17.73;9.30;;;;;;;-145.18;100.00;60484.78;4994625;28;20045;-61
2023/03/29 01:54:05;;;;;;;15.97;9.77;;;;;;;-145.18;100.00;60484.78;4994536;28;20051;-61
2023/03/29 01:56:36;;;;;;;19.23;10.43;;;;;;;-145.18;100.00;60484.78;4994568;28;20054;-61
2023/03/29 01:59:06;;;;;;;19.67;10.23;;;;;;;-145.18;100.00;60484.78;4994466;28;20112;-62
2023/03/29 02:01:39;;;;;;;18.73;10.60;;;;;;;-145.18;100.00;60484.78;4995237;28;20042;-61
2023/03/29 02:04:09;;;;;;;18.37;11.07;;;;;;;-145.18;100.00;60484.78;4974891;28;20445;-61
2023/03/29 02:06:36;;;;;;;18.07;10.70;;;;;;;-145.18;100.00;60484.78;4974901;28;20042;-61
2023/03/29 02:09:03;;;;;;;18.60;11.60;;;;;;;-145.18;100.00;60484.78;4974951;28;20038;-61
2023/03/29 02:11:29;;;;;;;20.87;11.10;;;;;;;-145.18;100.00;60484.78;4974848;28;20031;-62
2023/03/29 02:13:57;;;;;;;19.70;11.63;;;;;;;-145.18;100.00;60484.78;4974755;28;20038;-62
2023/03/29 02:16:23;;;;;;;22.37;11.90;;;;;;;-145.18;100.00;60484.78;4974621;28;20030;-61
2023/03/29 02:18:51;;;;;;;21.60;12.23;;;;;;;-145.18;100.00;60484.78;4975636;28;20046;-62
2023/03/29 02:21:42;;;;;;;19.27;11.73;;;;;;;-145.18;100.00;60484.78;4996370;28;20180;-62
2023/03/29 02:24:12;;;;;;;24.00;12.70;;;;;;;-145.18;100.00;60484.78;4995993;28;20044;-62
2023/03/29 02:26:38;;;;;;;23.33;12.77;;;;;;;-145.18;100.00;60484.78;4996062;28;20045;-62
2023/03/29 02:29:03;;;;;;;22.90;12.27;;;;;;;-145.18;100.00;60484.78;4997574;28;20030;-62
2023/03/29 02:31:43;;;;;;;21.83;13.47;;;;;;;-145.18;100.00;60484.78;5008556;28;20030;-62
2023/03/29 02:34:29;;;;;;;20.83;12.73;;;;;;;-145.18;100.00;60484.78;5015325;28;20490;-62
2023/03/29 02:37:02;;;;;;;22.03;13.30;;;;;;;-145.18;100.00;60484.78;5015397;28;20397;-62
2023/03/29 02:39:32;;;;;;;23.63;12.93;;;;;;;-145.18;100.00;60484.78;5015434;28;20482;-61
2023/03/29 02:41:58;;;;;;;24.67;13.87;;;;;;;-145.18;100.00;60484.78;5015185;28;20026;-61
2023/03/29 02:44:27;;;;;;;25.53;14.23;;;;;;;-145.18;100.00;60484.78;5015272;28;20474;-62
2023/03/29 02:46:57;;;;;;;23.70;14.03;;;;;;;-145.18;100.00;60484.78;5015352;28;20489;-62
2023/03/29 02:49:23;;;;;;;23.40;13.70;;;;;;;-145.18;100.00;60484.78;5014608;28;20101;-62
2023/03/29 02:51:52;;;;;;;24.80;13.53;;;;;;;-145.18;100.00;60484.78;5015047;28;20504;-61
2023/03/29 02:54:22;;;;;;;23.27;13.13;;;;;;;-145.18;100.00;60484.78;5014983;28;20026;-62
2023/03/29 02:56:54;;;;;;;21.60;13.10;;;;;;;-145.18;100.00;60484.78;5014998;28;20497;-62
2023/03/29 02:59:21;;;;;;;21.07;12.03;;;;;;;-145.18;100.00;60484.78;5014739;28;20030;-62
2023/03/29 03:01:48;;;;;;;19.67;11.47;;;;;;;-145.18;100.00;60484.78;5001676;28;20035;-61
2023/03/29 03:04:14;;;;;;;19.97;12.67;;;;;;;-145.18;100.00;60484.78;5011778;28;20441;-62
2023/03/29 03:06:40;;;;;;;19.77;12.27;;;;;;;-145.18;100.00;60484.78;5014869;28;20405;-62
2023/03/29 03:09:06;;;;;;;18.80;11.13;;;;;;;-145.18;100.00;60484.78;5014786;28;20044;-62
2023/03/29 03:11:32;;;;;;;19.70;11.63;;;;;;;-145.18;100.00;60484.78;5014761;28;20029;-62
2023/03/29 03:13:58;;;;;;;21.00;11.07;;;;;;;-145.18;100.00;60484.78;5014718;28;20034;-62
2023/03/29 03:16:24;;;;;;;20.10;10.53;;;;;;;-145.18;100.00;60484.78;5014462;28;20030;-61
2023/03/29 03:18:50;;;;;;;17.97;10.77;;;;;;;-145.18;100.00;60484.78;5014747;28;20030;-62
2023/03/29 03:21:18;;;;;;;19.07;10.77;;;;;;;-145.18;100.00;60484.78;5014343;28;20030;-62
2023/03/29 03:23:46;;;;;;;19.10;10.07;;;;;;;-145.18;100.00;60484.78;5014414;28;20045;-61
2023/03/29 03:26:11;;;;;;;16.00;10.03;;;;;;;-145.18;100.00;60484.78;5014378;28;20034;-62
2023/03/29 03:28:37;;;;;;;21.43;10.33;;;;;;;-145.18;100.00;60484.78;5014376;28;20036;-60
2023/03/29 03:31:04;;;;;;;15.00;9.07;;;;;;;-145.18;100.00;60484.78;5013982;28;20032;-62
2023/03/29 03:33:30;;;;;;;16.50;8.73;;;;;;;-145.18;100.00;60484.78;5014602;28;20022;-61
2023/03/29 03:36:01;;;;;;;18.13;8.40;;;;;;;-145.18;100.00;60484.78;5014100;28;20437;-61
2023/03/29 03:38:30;;;;;;;;;;;;;;;-145.18;100.00;60484.78;5014536;28;20026;-61
2023/03/29 03:40:58;;;;;;;17.63;8.73;;;;;;;-145.18;100.00;60484.78;5013021;28;20365;-61
2023/03/29 03:43:24;;;;;;;15.00;8.93;;;;;;;-145.18;100.00;60484.78;5014213;28;20485;-62
2023/03/29 03:45:49;;;;;;;13.97;8.90;;;;;;;-145.18;100.00;60484.78;5013979;28;20038;-61
2023/03/29 03:48:15;;;;;;;13.77;7.83;;;;;;;-145.18;100.00;60484.78;5013681;28;20026;-62
2023/03/29 03:50:46;;;;;;;14.77;8.43;;;;;;;-145.18;100.00;60484.78;5013632;28;20402;-62
2023/03/29 03:53:12;;;;;;;13.83;8.83;;;;;;;-145.18;100.00;60484.78;5014067;28;20037;-62
2023/03/29 03:55:38;;;;;;;14.83;8.80;;;;;;;-145.18;100.00;60484.78;5013643;28;20419;-62
2023/03/29 03:58:03;;;;;;;17.00;9.13;;;;;;;-145.18;100.00;60484.78;5013972;28;20030;-62
2023/03/29 04:00:29;;;;;;;16.00;8.53;;;;;;;-145.18;100.00;60484.78;5013178;28;20057;-62
2023/03/29 04:02:55;;;;;;;15.97;8.63;;;;;;;-145.18;100.00;60484.78;5013943;28;20037;-61
2023/03/29 04:05:20;;;;;;;18.57;8.30;;;;;;;-145.18;100.00;60484.78;5013644;28;20123;-61
2023/03/29 04:07:46;;;;;;;17.77;9.53;;;;;;;-145.18;100.00;60484.78;5013724;28;20044;-62
2023/03/29 04:10:12;;;;;;;15.37;8.20;;;;;;;-145.18;100.00;60484.78;5013543;28;20034;-62
2023/03/29 04:12:38;;;;;;;14.83;8.27;;;;;;;-145.18;100.00;60484.78;5013793;28;20069;-61
2023/03/29 04:15:05;;;;;;;12.77;8.30;;;;;;;-145.18;100.00;60484.78;5013250;28;20030;-62
2023/03/29 04:17:30;;;;;;;13.03;7.80;;;;;;;-145.18;100.00;60484.78;5013527;28;20110;-62
2023/03/29 04:19:56;;;;;;;16.10;7.60;;;;;;;-145.18;100.00;60484.78;5013442;28;20451;-61
2023/03/29 04:22:24;;;;;;;13.93;7.73;;;;;;;-145.18;100.00;60484.78;5013207;28;20040;-61
2023/03/29 04:24:50;;;;;;;15.27;8.73;;;;;;;-145.18;100.00;60484.78;5003029;28;20386;-62
2023/03/29 04:27:16;;;;;;;18.50;8.20;;;;;;;-145.18;100.00;60484.78;4993815;28;20038;-61
2023/03/29 04:29:43;;;;;;;14.07;7.73;;;;;;;-145.18;100.00;60484.78;5001710;28;20512;-62
2023/03/29 04:32:10;;;;;;;10.83;7.00;;;;;;;-145.18;100.00;60484.78;5011993;28;20022;-61
2023/03/29 04:34:36;;;;;;;14.33;7.10;;;;;;;-145.18;100.00;60484.78;5012892;28;20030;-61
2023/03/29 04:37:02;;;;;;;16.90;7.93;;;;;;;-145.18;100.00;60484.78;5013006;28;20505;-61
2023/03/29 04:39:32;;;;;;;13.53;7.07;;;;;;;-145.18;100.00;60484.78;5004829;28;20027;-61
2023/03/29 04:41:58;;;;;;;14.00;7.30;;;;;;;-145.18;100.00;60484.78;5008776;28;20080;-61
2023/03/29 04:44:25;;;;;;;13.83;7.40;;;;;;;-145.18;100.00;60484.78;5013144;28;20084;-61
2023/03/29 04:46:51;;;;;;;12.27;6.60;;;;;;;-145.18;100.00;60484.78;5013280;28;20018;-61
2023/03/29 04:49:17;;;;;;;12.23;6.73;;;;;;;-145.18;100.00;60484.78;5013143;28;20037;-61
2023/03/29 04:51:42;;;;;;;11.43;6.67;;;;;;;-145.18;100.00;60484.78;5013891;28;20072;-61
2023/03/29 04:54:08;;;;;;;12.90;7.53;;;;;;;-145.18;100.00;60484.78;5017610;28;20026;-61
2023/03/29 04:56:34;;;;;;;10.50;6.20;;;;;;;-145.18;100.00;60484.78;5016827;28;20076;-60
2023/03/29 04:58:59;;;;;;;11.63;6.73;;;;;;;-145.18;100.00;60484.78;5011932;28;20034;-61
2023/03/29 05:01:24;;;;;;;10.77;6.20;;;;;;;-145.18;100.00;60484.78;5012203;28;20075;-61
2023/03/29 05:03:51;;;;;;;12.23;6.87;;;;;;;-145.18;100.00;60484.78;5017049;28;20030;-61
2023/03/29 05:06:17;;;;;;;11.10;6.63;;;;;;;-145.18;100.00;60484.78;5016782;28;20037;-61
2023/03/29 05:08:43;;;;;;;11.63;5.90;;;;;;;-145.18;100.00;60484.78;5016901;28;20401;-61
2023/03/29 05:11:10;;;;;;;9.17;6.20;;;;;;;-145.18;100.00;60484.78;5016600;28;20034;-62
2023/03/29 05:13:36;;;;;;;10.43;6.10;;;;;;;-145.18;100.00;60484.78;5016223;28;20025;-61
2023/03/29 05:16:03;;;;;;;11.33;6.40;;;;;;;-145.18;100.00;60484.78;5017008;28;20101;-61
2023/03/29 05:18:29;;;;;;;10.00;5.80;;;;;;;-145.18;100.00;60484.78;5016773;28;20088;-61
2023/03/29 05:20:56;;;;;;;9.97;6.00;;;;;;;-145.18;100.00;60484.78;5016871;28;20033;-61
2023/03/29 05:23:22;;;;;;;11.77;6.30;;;;;;;-145.18;100.00;60484.78;5015470;28;20034;-61
2023/03/29 05:25:48;;;;;;;11.03;5.97;;;;;;;-145.18;100.00;60484.78;5007241;28;20100;-61
2023/03/29 05:28:14;;;;;;;12.73;6.27;;;;;;;-145.18;100.00;60484.78;5016808;28;20456;-61
2023/03/29 05:30:40;;;;;;;13.70;6.30;;;;;;;-145.18;100.00;60484.78;5016870;28;20025;-61
2023/03/29 05:33:06;;;;;;;10.73;5.87;;;;;;;-145.18;100.00;60484.78;5016580;28;20545;-61
2023/03/29 05:35:32;;;;;;;10.60;6.27;;;;;;;-145.18;100.00;60484.78;5016762;28;20022;-61
2023/03/29 05:37:59;;;;;;;12.57;6.57;;;;;;;-145.18;100.00;60484.78;5016317;28;20045;-61
2023/03/29 05:40:25;;;;;;;12.03;6.97;;;;;;;-145.18;100.00;60484.78;5016520;28;20030;-61
2023/03/29 05:42:51;;;;;;;13.37;6.97;;;;;;;-145.18;100.00;60484.78;5015797;28;20152;-61
2023/03/29 05:45:17;;;;;;;11.60;6.57;;;;;;;-145.18;100.00;60484.78;5016393;28;20033;-62
2023/03/29 05:47:43;;;;;;;13.37;7.03;;;;;;;-145.18;100.00;60484.78;5016206;28;20026;-62
2023/03/29 05:50:09;;;;;;;13.13;6.53;;;;;;;-145.18;100.00;60484.78;5016507;28;20096;-63
2023/03/29 05:52:35;;;;;;;14.30;6.50;;;;;;;-145.18;100.00;60484.78;5016244;28;20022;-62
2023/03/29 05:55:03;;;;;;;10.87;6.50;;;;;;;-145.18;100.00;60484.78;5016254;28;20022;-62
2023/03/29 05:57:28;;;;;;;11.07;6.30;;;;;;;-145.18;100.00;60484.78;5016262;28;20037;-62
2023/03/29 05:59:55;;;;;;;11.53;6.40;;;;;;;-145.18;100.00;60484.78;5010963;28;20452;-62
2023/03/29 06:02:24;;;;;;;12.50;6.47;;;;;;;-145.18;100.00;60484.78;5017542;28;20030;-62
2023/03/29 06:04:50;;;;;;;13.67;6.67;;;;;;;-145.18;100.00;60484.78;5018155;28;20109;-63
2023/03/29 06:07:16;;;;;;;14.00;7.33;;;;;;;-145.18;100.00;60484.78;5023325;28;20072;-62
2023/03/29 06:09:41;;;;;;;11.43;6.20;;;;;;;-145.18;100.00;60484.78;5014862;28;20030;-63
2023/03/29 06:12:07;;;;;;;12.20;6.13;;;;;;;-145.18;100.00;60484.78;5012687;28;20478;-62
2023/03/29 06:14:33;;;;;;;11.90;6.47;;;;;;;-145.18;100.00;60484.78;5015517;28;20108;-63
2023/03/29 06:17:00;;;;;;;10.73;6.70;;;;;;;-145.18;100.00;60484.78;5015700;28;20038;-63
2023/03/29 06:19:26;;;;;;;11.50;7.17;;;;;;;-145.18;100.00;60484.78;5015459;28;20485;-63
2023/03/29 06:21:52;;;;;;;11.97;6.80;;;;;;;-145.18;100.00;60484.78;5015031;28;20022;-62
2023/03/29 06:24:18;;;;;;;12.83;6.80;;;;;;;-145.18;100.00;60484.78;5015645;28;20038;-62
2023/03/29 06:26:43;;;;;;;13.80;6.83;;;;;;;-145.18;100.00;60484.78;5015137;28;20036;-62
2023/03/29 06:29:09;;;;;;;11.70;6.60;;;;;;;-145.18;100.00;60484.78;5015590;28;20029;-61
2023/03/29 06:31:35;;;;;;;10.23;6.27;;;;;;;-145.18;100.00;60484.78;5009789;28;20474;-61
2023/03/29 06:34:01;;;;;;;10.40;6.10;;;;;;;-145.18;100.00;60484.78;4999012;28;20056;-61
2023/03/29 06:36:27;;;;;;;12.87;6.30;;;;;;;-145.18;100.00;60484.78;5015403;28;20037;-61
2023/03/29 06:38:52;;;;;;;11.80;6.23;;;;;;;-145.18;100.00;60484.78;5012407;28;20041;-61
2023/03/29 06:41:18;;;;;;;10.47;6.00;;;;;;;-145.18;100.00;60484.78;5015485;28;20109;-61
2023/03/29 06:43:44;;;;;;;12.17;6.40;;;;;;;-145.18;100.00;60484.78;5014877;28;20358;-61
2023/03/29 06:46:10;;;;;;;10.57;6.00;;;;;;;-145.18;100.00;60484.78;5015100;28;20028;-61
2023/03/29 06:48:40;;;;;;;9.87;5.97;;;;;;;-145.18;100.00;60484.78;5015127;28;20034;-61
2023/03/29 06:51:06;;;;;;;10.00;5.57;;;;;;;-145.18;100.00;60484.78;5015443;28;20478;-61
2023/03/29 06:53:32;;;;;;;10.90;6.00;;;;;;;-145.18;100.00;60484.78;5015392;28;20061;-61
2023/03/29 06:55:58;;;;;;;10.83;5.70;;;;;;;-145.18;100.00;60484.78;5015358;28;20030;-61
2023/03/29 06:58:24;;;;;;;13.37;5.63;;;;;;;-145.18;100.00;60484.78;5015138;28;20026;-61
2023/03/29 07:00:50;;;;;;;10.60;5.80;;;;;;;-145.18;100.00;60484.78;5015016;28;20040;-61
2023/03/29 07:03:19;;;;;;;11.00;5.90;;;;;;;-145.18;100.00;60484.78;5014874;28;20030;-61
2023/03/29 07:05:46;;;;;;;8.10;5.03;;;;;;;-145.18;100.00;60484.78;5006077;28;20029;-61
2023/03/29 07:08:13;;;;;;;8.83;5.33;;;;;;;-145.18;100.00;60484.78;4995305;28;20034;-60
2023/03/29 07:10:41;;;;;;;9.17;5.23;;;;;;;-145.18;100.00;60484.78;4995338;28;20550;-61
2023/03/29 07:13:11;;;;;;;14.30;6.03;;;;;;;-145.18;100.00;60484.78;4995209;28;20389;-61
2023/03/29 07:15:36;;;;;;;9.70;5.60;;;;;;;-145.18;100.00;60484.78;4995094;28;20135;-61
2023/03/29 07:18:03;;;;;;;13.40;5.50;;;;;;;-145.18;100.00;60484.78;4995399;28;20030;-61
2023/03/29 07:20:30;;;;;;;10.20;5.33;;;;;;;-145.18;100.00;60484.78;4995497;28;20030;-61
2023/03/29 07:22:56;;;;;;;9.30;5.70;;;;;;;-145.18;100.00;60484.78;4995243;28;20030;-61
2023/03/29 07:25:23;;;;;;;11.43;5.37;;;;;;;-145.18;100.00;60484.78;4995370;28;20069;-61
2023/03/29 07:27:50;;;;;;;10.30;5.70;;;;;;;-145.18;100.00;60484.78;4994861;28;20394;-61
2023/03/29 07:30:19;;;;;;;9.83;5.83;;;;;;;-145.18;100.00;60484.78;4995018;28;20538;-61
2023/03/29 07:32:45;;;;;;;7.80;5.27;;;;;;;-145.18;100.00;60484.78;4994772;28;20038;-61
2023/03/29 07:35:12;;;;;;;8.77;5.60;;;;;;;-145.18;100.00;60484.78;4994887;28;20026;-61
2023/03/29 07:37:38;;;;;;;9.83;5.50;;;;;;;-145.18;100.00;60484.78;4994751;28;20030;-61
2023/03/29 07:40:10;;;;;;;10.73;6.00;;;;;;;-145.18;100.00;60484.78;5003282;28;20026;-61
2023/03/29 07:42:35;;;;;;;10.00;5.93;;;;;;;-145.18;100.00;60484.78;5013611;28;20026;-61
2023/03/29 07:45:03;;;;;;;10.30;6.00;;;;;;;-145.18;100.00;60484.78;5014376;28;20477;-61
2023/03/29 07:47:28;;;;;;;11.03;6.00;;;;;;;-145.18;100.00;60484.78;5014114;28;20030;-61
2023/03/29 07:49:54;;;;;;;11.90;6.63;;;;;;;-145.18;100.00;60484.78;5014356;28;20040;-61
2023/03/29 07:52:20;;;;;;;13.17;6.77;;;;;;;-145.18;100.00;60484.78;5014205;28;20033;-61
2023/03/29 07:54:46;;;;;;;12.80;7.00;;;;;;;-145.18;100.00;60484.78;5014231;28;20625;-62
2023/03/29 07:57:11;;;;;;;10.10;5.90;;;;;;;-145.18;100.00;60484.78;5013898;28;20053;-62
2023/03/29 07:59:37;;;;;;;13.07;6.53;;;;;;;-145.18;100.00;60484.78;5014049;28;20072;-61
2023/03/29 08:02:02;;;;;;;11.70;6.87;;;;;;;-145.18;100.00;60484.78;5014006;28;20022;-61
2023/03/29 08:04:28;;;;;;;14.67;6.60;;;;;;;-145.18;100.00;60484.78;5013955;28;20161;-61
2023/03/29 08:06:54;;;;;;;11.73;6.33;;;;;;;-145.18;100.00;60484.78;5013814;28;20033;-61
2023/03/29 08:09:20;;;;;;;13.90;7.07;;;;;;;-145.18;100.00;60484.78;5013761;28;20058;-61
2023/03/29 08:11:45;;;;;;;12.07;6.30;;;;;;;-145.18;100.00;60484.78;5013774;28;20049;-62
2023/03/29 08:14:11;;;;;;;10.97;6.97;;;;;;;-145.18;100.00;60484.78;5013973;28;20030;-61
2023/03/29 08:16:36;;;;;;;14.73;7.13;;;;;;;-145.18;100.00;60484.78;5013908;28;20505;-61
2023/03/29 08:19:02;;;;;;;19.73;6.97;;;;;;;-145.18;100.00;60484.78;5013902;28;20022;-61
2023/03/29 08:21:27;;;;;;;13.00;6.97;;;;;;;-145.18;100.00;60484.78;5013792;28;20443;-61
2023/03/29 08:23:53;;;;;;;15.30;7.07;;;;;;;-145.18;100.00;60484.78;5013653;28;20386;-62
2023/03/29 08:26:18;;;;;;;13.73;7.20;;;;;;;-145.18;100.00;60484.78;5013331;28;20112;-62
2023/03/29 08:28:44;;;;;;;14.43;8.00;;;;;;;-145.18;100.00;60484.78;5011935;28;20026;-62
2023/03/29 08:31:10;;;;;;;18.37;7.73;;;;;;;-145.18;100.00;60484.78;5013161;28;20037;-61
2023/03/29 08:33:36;;;;;;;13.87;7.87;;;;;;;-145.18;100.00;60484.78;5013453;28;20041;-61
2023/03/29 08:36:02;;;;;;;13.73;8.30;;;;;;;-145.18;100.00;60484.78;5013669;28;20100;-61
2023/03/29 08:38:28;;;;;;;16.70;7.20;;;;;;;-145.18;100.00;60484.78;5013327;28;20100;-61
2023/03/29 08:40:53;;;;;;;15.67;8.17;;;;;;;-145.18;100.00;60484.78;5010452;28;20030;-61
2023/03/29 08:43:51;;;;;;;16.10;8.40;;;;;;;-145.18;100.00;60484.78;5010518;28;20052;-61
2023/03/29 08:46:34;;;;;;;14.23;7.90;;;;;;;-145.18;100.00;60484.78;5005892;28;20548;-61
2023/03/29 08:49:03;;;;;;;15.70;8.07;;;;;;;-145.18;100.00;60484.78;5013660;28;20038;-61
2023/03/29 08:51:39;;;;;;;16.23;8.47;;;;;;;-145.18;100.00;60484.78;5013253;28;20026;-61
2023/03/29 08:54:19;;;;;;;16.73;8.53;;;;;;;-145.18;100.00;60484.78;5013276;28;20033;-62
2023/03/29 08:56:47;;;;;;;15.73;8.20;;;;;;;-145.18;100.00;60484.78;5013258;28;20057;-61
2023/03/29 08:59:24;;;;;;;14.77;8.63;;;;;;;-145.18;100.00;60484.78;5013092;28;20478;-62
2023/03/29 09:01:54;;;;;;;16.47;8.50;;;;;;;-145.18;100.00;60484.78;5011233;28;20408;-61
2023/03/29 09:04:26;;;;;;;18.70;8.70;;;;;;;-145.18;100.00;60484.78;5028603;28;20478;-62
2023/03/29 09:06:53;;;;;;;20.70;9.37;;;;;;;-145.18;100.00;60484.78;5013513;28;20084;-61
2023/03/29 09:09:21;;;;;;;13.63;8.50;;;;;;;-145.18;100.00;60484.78;5012918;28;20034;-62
2023/03/29 09:12:27;;;;;;;14.20;8.93;;;;;;;-145.18;100.00;60484.78;5013191;28;20030;-61
2023/03/29 09:15:41;;;;;;;15.20;8.10;;;;;;;-145.18;100.00;60484.78;5013029;28;20034;-61
2023/03/29 09:18:23;;;;;;;14.90;8.47;;;;;;;-145.18;100.00;60484.78;5011013;28;20124;-61
2023/03/29 09:20:58;;;;;;;14.00;7.67;;;;;;;-145.18;100.00;60484.78;5012972;28;20088;-61
2023/03/29 09:24:09;;;;;;;14.07;8.17;;;;;;;-145.18;100.00;60484.78;5012954;28;20112;-61
2023/03/29 09:27:09;;;;;;;14.43;8.67;;;;;;;-145.18;100.00;60484.78;4991258;28;20034;-62
2023/03/29 09:29:49;;;;;;;16.23;9.47;;;;;;;-145.18;100.00;60484.78;4991185;28;20113;-62
2023/03/29 09:32:26;;;;;;;18.13;9.00;;;;;;;-145.18;100.00;60484.78;4991262;28;20038;-62
2023/03/29 09:35:07;;;;;;;16.47;10.43;;;;;;;-145.18;100.00;60484.78;4991223;28;20482;-62
2023/03/29 09:37:38;;;;;;;15.90;9.30;;;;;;;-145.18;100.00;60484.78;4991202;28;20564;-61
2023/03/29 09:40:11;;;;;;;16.07;9.80;;;;;;;-145.18;100.00;60484.78;4993807;28;20038;-61
2023/03/29 09:42:38;;;;;;;13.93;8.87;;;;;;;-145.18;100.00;60484.78;4994099;28;20133;-62
2023/03/29 09:45:08;;;;;;;16.53;8.90;;;;;;;-145.18;100.00;60484.78;4995032;28;20038;-62
2023/03/29 09:47:43;;;;;;;16.30;9.13;;;;;;;-145.18;100.00;60484.78;4994628;28;20037;-62
2023/03/29 09:50:36;;;;;;;17.73;9.93;;;;;;;-145.18;100.00;60484.78;4994155;28;20065;-62
2023/03/29 09:53:01;;;;;;;14.50;8.40;;;;;;;-145.18;100.00;60484.78;4994792;28;20105;-62
2023/03/29 09:55:32;;;;;;;17.17;9.40;;;;;;;-145.18;100.00;60484.78;4994545;28;20118;-61
2023/03/29 09:58:01;;;;;;;16.38;9.43;;;;;;;-145.18;100.00;60484.78;4996120;28;20042;-61
2023/03/29 10:00:26;;;;;;;12.50;7.33;;;;;;;-145.18;100.00;60484.78;4996836;28;20034;-62
2023/03/29 10:02:55;;;;;;;14.50;8.97;;;;;;;-145.18;100.00;60484.78;4996732;28;20089;-62
2023/03/29 10:05:24;;;;;;;17.37;8.57;;;;;;;-145.18;100.00;60484.78;4996672;28;20490;-61
2023/03/29 10:07:53;;;;;;;15.03;8.13;;;;;;;-145.18;100.00;60484.78;4996316;28;20022;-62
2023/03/29 10:10:26;;;;;;;14.43;8.40;;;;;;;-145.18;100.00;60484.78;4996444;28;20022;-62
2023/03/29 10:12:57;;;;;;;15.37;9.07;;;;;;;-145.18;100.00;60484.78;4996326;28;20080;-62
2023/03/29 10:15:27;;;;;;;13.73;8.07;;;;;;;-145.18;100.00;60484.78;4996351;28;20487;-62
2023/03/29 10:17:58;;;;;;;14.03;8.50;;;;;;;-145.18;100.00;60484.78;4996222;28;20030;-62
2023/03/29 10:20:24;;;;;;;15.60;9.03;;;;;;;-145.18;100.00;60484.78;4996598;28;20510;-62
2023/03/29 10:22:57;;;;;;;16.30;8.73;;;;;;;-145.18;100.00;60484.78;4996995;28;20038;-61
2023/03/29 10:25:30;;;;;;;14.70;8.77;;;;;;;-145.18;100.00;60484.78;5013495;28;20034;-62
2023/03/29 10:28:11;;;;;;;12.90;8.13;;;;;;;-145.18;100.00;60484.78;5015637;28;20041;-62
2023/03/29 10:30:37;;;;;;;16.10;9.10;;;;;;;-145.18;100.00;60484.78;5015577;28;20040;-61
2023/03/29 10:33:06;;;;;;;13.47;8.10;;;;;;;-145.18;100.00;60484.78;5015482;28;20034;-61
2023/03/29 10:35:40;;;;;;;14.93;7.57;;;;;;;-145.18;100.00;60484.78;5015508;28;20048;-61
2023/03/29 10:38:11;;;;;;;14.07;7.80;;;;;;;-145.18;100.00;60484.78;5015430;28;20050;-61
2023/03/29 10:40:48;;;;;;;18.30;9.10;;;;;;;-145.18;100.00;60484.78;5012238;28;20023;-62
2023/03/29 10:43:25;;;;;;;11.33;7.70;;;;;;;-145.18;100.00;60484.78;5015283;28;20018;-62
2023/03/29 10:45:54;;;;;;;14.87;7.77;;;;;;;-145.18;100.00;60484.78;5015322;28;20034;-61
2023/03/29 10:48:26;;;;;;;13.17;8.43;;;;;;;-145.18;100.00;60484.78;5015105;28;20041;-62
2023/03/29 10:50:52;;;;;;;12.13;8.02;;;;;;;-145.18;100.00;60484.78;5006596;28;20105;-62
2023/03/29 10:53:26;;;;;;;15.23;8.13;;;;;;;-145.18;100.00;60484.78;4995688;28;20452;-62
2023/03/29 10:56:16;;;;;;;12.77;8.23;;;;;;;-145.18;100.00;60484.78;4995562;28;20101;-61
2023/03/29 10:59:16;;;;;;;14.67;7.73;;;;;;;-145.18;100.00;60484.78;4998002;28;20037;-62
2023/03/29 11:02:33;;;;;;;12.57;7.30;;;;;;;-145.18;100.00;60484.78;4995260;28;20140;-62
2023/03/29 11:05:16;;;;;;;12.23;6.33;;;;;;;-145.18;100.00;60484.78;4994321;28;20052;-62
2023/03/29 11:08:34;;;;;;;15.77;8.73;;;;;;;-145.18;100.00;60484.78;4995290;28;20027;-62
2023/03/29 11:12:10;;;;;;;11.83;8.00;;;;;;;-145.18;100.00;60484.78;4954268;29;20043;-62
2023/03/29 11:14:58;;;;;;;14.47;7.67;;;;;;;-145.18;100.00;60484.78;4897254;29;20537;-62
2023/03/29 11:18:05;;;;;;;15.30;8.40;;;;;;;-145.18;100.00;60484.78;4897224;29;20040;-62
2023/03/29 11:20:43;;;;;;;18.53;9.03;;;;;;;-145.18;100.00;60484.78;4897202;29;20084;-61